AAL809 KMIA-KTYS
Flight info
| Callsign | AAL809 |
|---|---|
| Flight time | 1h 39m |
| Altitude | 36000 |
| Route | FLMGO2 STYMY Q77 MJAMS/N0452F350 Q77 SHRKS/N0451F360 Q77 TEUFL TWINS ODF HIGGI |
| Aircraft | A320/M-SDE3FGHIRWY/LB1 |
Departure
| Time | 2026-04-23 18:09 |
|---|---|
| Airport | Miami International Airport (KMIA) |
Arrival
| Time | 2026-04-23 19:48 |
|---|---|
| Airport | McGhee Tyson Airport (KTYS) |
| Time | Latitude | Longitude | Altitude | Speed | Heading |
|---|---|---|---|---|---|
| 2026-04-23 17:49 | 25.79785 | -80.27714 | 16 ft | 0 kts | 178° |
| 2026-04-23 18:00 | 25.79786 | -80.27715 | 16 ft | 1 kts | 178° |
| 2026-04-23 18:00 | 25.79802 | -80.27715 | 27 ft | 3 kts | 179° |
| 2026-04-23 18:00 | 25.79823 | -80.27715 | 18 ft | 3 kts | 181° |
| 2026-04-23 18:01 | 25.79843 | -80.27714 | 17 ft | 3 kts | 185° |
| 2026-04-23 18:01 | 25.79863 | -80.27712 | 17 ft | 3 kts | 194° |
| 2026-04-23 18:01 | 25.79881 | -80.27705 | 16 ft | 3 kts | 219° |
| 2026-04-23 18:01 | 25.79890 | -80.27694 | 20 ft | 3 kts | 264° |
| 2026-04-23 18:02 | 25.79890 | -80.27691 | 20 ft | 1 kts | 267° |
| 2026-04-23 18:02 | 25.79890 | -80.27692 | 20 ft | 0 kts | 267° |
| 2026-04-23 18:03 | 25.79890 | -80.27693 | 16 ft | 2 kts | 267° |
| 2026-04-23 18:04 | 25.79896 | -80.27731 | 17 ft | 13 kts | 300° |
| 2026-04-23 18:04 | 25.79972 | -80.27823 | 15 ft | 19 kts | 270° |
| 2026-04-23 18:04 | 25.80045 | -80.27931 | 13 ft | 16 kts | 287° |
| 2026-04-23 18:04 | 25.80045 | -80.28061 | 12 ft | 17 kts | 268° |
| 2026-04-23 18:05 | 25.80041 | -80.28186 | 15 ft | 16 kts | 267° |
| 2026-04-23 18:05 | 25.80036 | -80.28306 | 16 ft | 16 kts | 267° |
| 2026-04-23 18:05 | 25.80033 | -80.28431 | 15 ft | 16 kts | 262° |
| 2026-04-23 18:05 | 25.80022 | -80.28556 | 18 ft | 16 kts | 268° |
| 2026-04-23 18:06 | 25.80022 | -80.28672 | 21 ft | 14 kts | 269° |
| 2026-04-23 18:06 | 25.80016 | -80.28808 | 22 ft | 21 kts | 266° |
| 2026-04-23 18:06 | 25.80009 | -80.28977 | 20 ft | 23 kts | 267° |
| 2026-04-23 18:06 | 25.80001 | -80.29153 | 22 ft | 23 kts | 266° |
| 2026-04-23 18:07 | 25.79994 | -80.29339 | 18 ft | 26 kts | 266° |
| 2026-04-23 18:07 | 25.79983 | -80.29550 | 14 ft | 29 kts | 266° |
| 2026-04-23 18:07 | 25.79975 | -80.29768 | 14 ft | 28 kts | 266° |
| 2026-04-23 18:07 | 25.79981 | -80.29985 | 12 ft | 25 kts | 289° |
| 2026-04-23 18:08 | 25.80008 | -80.30090 | 15 ft | 7 kts | 288° |
| 2026-04-23 18:08 | 25.80045 | -80.30130 | 15 ft | 9 kts | 340° |
| 2026-04-23 18:08 | 25.80077 | -80.30087 | 14 ft | 10 kts | 84° |
| 2026-04-23 18:08 | 25.80089 | -80.29839 | 13 ft | 70 kts | 88° |
| 2026-04-23 18:09 | 25.80111 | -80.29013 | 21 ft | 140 kts | 88° |
| 2026-04-23 18:09 | 25.80184 | -80.27756 | 240 ft | 177 kts | 87° |
| 2026-04-23 18:09 | 25.80276 | -80.26332 | 934 ft | 192 kts | 88° |
| 2026-04-23 18:09 | 25.80344 | -80.24842 | 1901 ft | 192 kts | 88° |
| 2026-04-23 18:10 | 25.80404 | -80.23319 | 2674 ft | 206 kts | 90° |
| 2026-04-23 18:10 | 25.80463 | -80.21661 | 3270 ft | 220 kts | 89° |
| 2026-04-23 18:10 | 25.80521 | -80.19915 | 3708 ft | 234 kts | 89° |
| 2026-04-23 18:10 | 25.80612 | -80.18053 | 4147 ft | 251 kts | 82° |
| 2026-04-23 18:11 | 25.81394 | -80.16311 | 4796 ft | 261 kts | 45° |
| 2026-04-23 18:11 | 25.82996 | -80.15350 | 5468 ft | 269 kts | 13° |
| 2026-04-23 18:11 | 25.84878 | -80.15141 | 6162 ft | 276 kts | 0° |
| 2026-04-23 18:11 | 25.86832 | -80.15229 | 6902 ft | 279 kts | 356° |
| 2026-04-23 18:12 | 25.88123 | -80.15328 | 7389 ft | 280 kts | 355° |
| 2026-04-23 18:12 | 25.90651 | -80.16024 | 8405 ft | 282 kts | 336° |
| 2026-04-23 18:12 | 25.92451 | -80.16825 | 9152 ft | 283 kts | 339° |
| 2026-04-23 18:12 | 25.94346 | -80.17543 | 9798 ft | 285 kts | 341° |
| 2026-04-23 18:13 | 25.96219 | -80.18195 | 9981 ft | 285 kts | 342° |
| 2026-04-23 18:13 | 25.98183 | -80.18941 | 10018 ft | 309 kts | 334° |
| 2026-04-23 18:13 | 26.00082 | -80.20245 | 10024 ft | 334 kts | 320° |
| 2026-04-23 18:13 | 26.01826 | -80.21949 | 10021 ft | 337 kts | 318° |
| 2026-04-23 18:14 | 26.03593 | -80.23704 | 10010 ft | 343 kts | 318° |
| 2026-04-23 18:14 | 26.05364 | -80.25471 | 10009 ft | 342 kts | 318° |
| 2026-04-23 18:14 | 26.07131 | -80.27234 | 10003 ft | 343 kts | 318° |
| 2026-04-23 18:14 | 26.08892 | -80.28988 | 10013 ft | 341 kts | 318° |
| 2026-04-23 18:15 | 26.10659 | -80.30745 | 10003 ft | 339 kts | 318° |
| 2026-04-23 18:15 | 26.12402 | -80.32479 | 10017 ft | 341 kts | 318° |
| 2026-04-23 18:15 | 26.14152 | -80.34218 | 10003 ft | 334 kts | 318° |
| 2026-04-23 18:15 | 26.15860 | -80.35916 | 10012 ft | 324 kts | 318° |
| 2026-04-23 18:16 | 26.17514 | -80.37559 | 10003 ft | 311 kts | 318° |
| 2026-04-23 18:16 | 26.19091 | -80.39124 | 10018 ft | 296 kts | 318° |
| 2026-04-23 18:16 | 26.20593 | -80.40615 | 10004 ft | 287 kts | 318° |
| 2026-04-23 18:17 | 26.23915 | -80.43414 | 10019 ft | 324 kts | 332° |
| 2026-04-23 18:17 | 26.26003 | -80.44523 | 10241 ft | 340 kts | 334° |
| 2026-04-23 18:17 | 26.28180 | -80.45671 | 10610 ft | 351 kts | 334° |
| 2026-04-23 18:17 | 26.30393 | -80.46845 | 11209 ft | 353 kts | 333° |
| 2026-04-23 18:18 | 26.32620 | -80.48030 | 11860 ft | 355 kts | 332° |
| 2026-04-23 18:18 | 26.34849 | -80.49219 | 12483 ft | 357 kts | 333° |
| 2026-04-23 18:18 | 26.37095 | -80.50418 | 13096 ft | 359 kts | 332° |
| 2026-04-23 18:18 | 26.39359 | -80.51627 | 13683 ft | 362 kts | 332° |
| 2026-04-23 18:19 | 26.41667 | -80.52858 | 14255 ft | 364 kts | 332° |
| 2026-04-23 18:19 | 26.43963 | -80.54083 | 14773 ft | 367 kts | 332° |
| 2026-04-23 18:19 | 26.46281 | -80.55319 | 15262 ft | 370 kts | 332° |
| 2026-04-23 18:19 | 26.48639 | -80.56499 | 15748 ft | 375 kts | 337° |
| 2026-04-23 18:20 | 26.51153 | -80.57334 | 16240 ft | 379 kts | 341° |
| 2026-04-23 18:20 | 26.53705 | -80.58134 | 16731 ft | 382 kts | 341° |
| 2026-04-23 18:20 | 26.56277 | -80.58944 | 17237 ft | 386 kts | 341° |
| 2026-04-23 18:20 | 26.58877 | -80.59769 | 17761 ft | 389 kts | 341° |
| 2026-04-23 18:21 | 26.61492 | -80.60602 | 18296 ft | 393 kts | 341° |
| 2026-04-23 18:21 | 26.64124 | -80.61440 | 18753 ft | 396 kts | 341° |
| 2026-04-23 18:21 | 26.66787 | -80.62288 | 19241 ft | 399 kts | 341° |
| 2026-04-23 18:21 | 26.69458 | -80.63137 | 19742 ft | 401 kts | 341° |
| 2026-04-23 18:22 | 26.72155 | -80.63994 | 20251 ft | 403 kts | 341° |
| 2026-04-23 18:22 | 26.74858 | -80.64853 | 20749 ft | 406 kts | 341° |
| 2026-04-23 18:22 | 26.77586 | -80.65723 | 21215 ft | 408 kts | 341° |
| 2026-04-23 18:22 | 26.80323 | -80.66598 | 21650 ft | 410 kts | 341° |
| 2026-04-23 18:23 | 26.82146 | -80.67181 | 21922 ft | 412 kts | 341° |
| 2026-04-23 18:23 | 26.88629 | -80.69256 | 22854 ft | 417 kts | 341° |
| 2026-04-23 18:24 | 26.94224 | -80.71109 | 23630 ft | 421 kts | 339° |
| 2026-04-23 18:24 | 26.97012 | -80.72141 | 23944 ft | 423 kts | 338° |
| 2026-04-23 18:24 | 26.99796 | -80.73223 | 24247 ft | 424 kts | 337° |
| 2026-04-23 18:25 | 27.05384 | -80.75425 | 24857 ft | 427 kts | 337° |
| 2026-04-23 18:25 | 27.08193 | -80.76519 | 25155 ft | 429 kts | 337° |
| 2026-04-23 18:25 | 27.11029 | -80.77605 | 25441 ft | 431 kts | 337° |
| 2026-04-23 18:25 | 27.13877 | -80.78684 | 25735 ft | 433 kts | 337° |
| 2026-04-23 18:26 | 27.16779 | -80.79776 | 26018 ft | 435 kts | 337° |
| 2026-04-23 18:26 | 27.19652 | -80.80854 | 26314 ft | 436 kts | 337° |
| 2026-04-23 18:26 | 27.22526 | -80.81936 | 26604 ft | 438 kts | 337° |
| 2026-04-23 18:26 | 27.25427 | -80.83032 | 26909 ft | 440 kts | 337° |
| 2026-04-23 18:27 | 27.28338 | -80.84135 | 27201 ft | 441 kts | 337° |
| 2026-04-23 18:27 | 27.31242 | -80.85237 | 27556 ft | 441 kts | 336° |
| 2026-04-23 18:27 | 27.34137 | -80.86351 | 27980 ft | 438 kts | 336° |
| 2026-04-23 18:27 | 27.36999 | -80.87503 | 28406 ft | 436 kts | 335° |
| 2026-04-23 18:28 | 27.39846 | -80.88688 | 28833 ft | 435 kts | 334° |
| 2026-04-23 18:28 | 27.42669 | -80.89876 | 29257 ft | 433 kts | 334° |
| 2026-04-23 18:28 | 27.45492 | -80.91060 | 29676 ft | 432 kts | 334° |
| 2026-04-23 18:28 | 27.48310 | -80.92234 | 30092 ft | 431 kts | 334° |
| 2026-04-23 18:29 | 27.51110 | -80.93393 | 30467 ft | 430 kts | 334° |
| 2026-04-23 18:29 | 27.53922 | -80.94550 | 30802 ft | 429 kts | 334° |
| 2026-04-23 18:29 | 27.56756 | -80.95713 | 31153 ft | 427 kts | 334° |
| 2026-04-23 18:29 | 27.59543 | -80.96857 | 31498 ft | 426 kts | 334° |
| 2026-04-23 18:30 | 27.62328 | -80.98005 | 31821 ft | 426 kts | 334° |
| 2026-04-23 18:30 | 27.65105 | -80.99154 | 32168 ft | 425 kts | 333° |
| 2026-04-23 18:30 | 27.67874 | -81.00299 | 32520 ft | 424 kts | 333° |
| 2026-04-23 18:30 | 27.70640 | -81.01442 | 32861 ft | 423 kts | 333° |
| 2026-04-23 18:31 | 27.73402 | -81.02584 | 33202 ft | 422 kts | 333° |
| 2026-04-23 18:31 | 27.76151 | -81.03723 | 33537 ft | 421 kts | 333° |
| 2026-04-23 18:31 | 27.78903 | -81.04862 | 33870 ft | 420 kts | 333° |
| 2026-04-23 18:31 | 27.81644 | -81.05996 | 34178 ft | 420 kts | 333° |
| 2026-04-23 18:32 | 27.84384 | -81.07130 | 34443 ft | 419 kts | 333° |
| 2026-04-23 18:32 | 27.87124 | -81.08266 | 34706 ft | 418 kts | 333° |
| 2026-04-23 18:32 | 27.89848 | -81.09397 | 34947 ft | 418 kts | 333° |
| 2026-04-23 18:32 | 27.92578 | -81.10532 | 35183 ft | 417 kts | 333° |
| 2026-04-23 18:33 | 27.95301 | -81.11664 | 35413 ft | 417 kts | 333° |
| 2026-04-23 18:33 | 27.98019 | -81.12796 | 35629 ft | 416 kts | 333° |
| 2026-04-23 18:33 | 28.00741 | -81.13930 | 35844 ft | 416 kts | 333° |
| 2026-04-23 18:33 | 28.03449 | -81.15060 | 36049 ft | 416 kts | 333° |
| 2026-04-23 18:34 | 28.06137 | -81.16273 | 36125 ft | 416 kts | 331° |
| 2026-04-23 18:34 | 28.11455 | -81.19002 | 36139 ft | 424 kts | 329° |
| 2026-04-23 18:35 | 28.16804 | -81.21879 | 36139 ft | 427 kts | 329° |
| 2026-04-23 18:35 | 28.22194 | -81.24712 | 36140 ft | 428 kts | 330° |
| 2026-04-23 18:36 | 28.26735 | -81.27050 | 36139 ft | 428 kts | 330° |
| 2026-04-23 18:36 | 28.32173 | -81.29842 | 36146 ft | 429 kts | 330° |
| 2026-04-23 18:37 | 28.37615 | -81.32644 | 36149 ft | 430 kts | 330° |
| 2026-04-23 18:37 | 28.43077 | -81.35430 | 36156 ft | 430 kts | 330° |
| 2026-04-23 18:38 | 28.48539 | -81.38220 | 36137 ft | 431 kts | 330° |
| 2026-04-23 18:38 | 28.54008 | -81.41015 | 36136 ft | 432 kts | 331° |
| 2026-04-23 18:39 | 28.59489 | -81.43820 | 36129 ft | 433 kts | 331° |
| 2026-04-23 18:39 | 28.64982 | -81.46643 | 36128 ft | 434 kts | 331° |
| 2026-04-23 18:40 | 28.70497 | -81.49474 | 36134 ft | 435 kts | 331° |
| 2026-04-23 18:40 | 28.76030 | -81.52321 | 36134 ft | 437 kts | 332° |
| 2026-04-23 18:41 | 28.81571 | -81.55176 | 36139 ft | 437 kts | 332° |
| 2026-04-23 18:41 | 28.87116 | -81.58034 | 36132 ft | 438 kts | 332° |
| 2026-04-23 18:42 | 28.92820 | -81.60638 | 36128 ft | 443 kts | 343° |
| 2026-04-23 18:42 | 28.98979 | -81.61498 | 36124 ft | 449 kts | 352° |
| 2026-04-23 18:43 | 29.05208 | -81.62049 | 36129 ft | 449 kts | 352° |
| 2026-04-23 18:43 | 29.11436 | -81.62624 | 36134 ft | 449 kts | 352° |
| 2026-04-23 18:44 | 29.17666 | -81.63197 | 36136 ft | 449 kts | 352° |
| 2026-04-23 18:44 | 29.23893 | -81.63772 | 36145 ft | 449 kts | 352° |
| 2026-04-23 18:45 | 29.30120 | -81.64346 | 36151 ft | 448 kts | 353° |
| 2026-04-23 18:45 | 29.36339 | -81.64918 | 36158 ft | 448 kts | 353° |
| 2026-04-23 18:46 | 29.42556 | -81.65490 | 36158 ft | 448 kts | 353° |
| 2026-04-23 18:46 | 29.48771 | -81.66065 | 36164 ft | 448 kts | 353° |
| 2026-04-23 18:47 | 29.54226 | -81.66565 | 36161 ft | 448 kts | 353° |
| 2026-04-23 18:47 | 29.60439 | -81.67138 | 36159 ft | 448 kts | 353° |
| 2026-04-23 18:48 | 29.66651 | -81.67709 | 36159 ft | 447 kts | 353° |
| 2026-04-23 18:48 | 29.72846 | -81.68286 | 36156 ft | 447 kts | 353° |
| 2026-04-23 18:49 | 29.79051 | -81.68863 | 36157 ft | 447 kts | 353° |
| 2026-04-23 18:49 | 29.85253 | -81.69431 | 36155 ft | 447 kts | 353° |
| 2026-04-23 18:50 | 29.90448 | -81.69909 | 36156 ft | 447 kts | 353° |
| 2026-04-23 18:50 | 29.97686 | -81.70584 | 36151 ft | 447 kts | 353° |
| 2026-04-23 18:51 | 30.03891 | -81.71168 | 36155 ft | 447 kts | 353° |
| 2026-04-23 18:51 | 30.10083 | -81.71747 | 36163 ft | 447 kts | 354° |
| 2026-04-23 18:52 | 30.16190 | -81.72314 | 36169 ft | 446 kts | 354° |
| 2026-04-23 18:52 | 30.22463 | -81.72898 | 36169 ft | 446 kts | 354° |
| 2026-04-23 18:53 | 30.28643 | -81.73476 | 36166 ft | 445 kts | 354° |
| 2026-04-23 18:53 | 30.34812 | -81.74056 | 36167 ft | 445 kts | 354° |
| 2026-04-23 18:54 | 30.40978 | -81.74629 | 36148 ft | 444 kts | 354° |
| 2026-04-23 18:54 | 30.47151 | -81.75208 | 36134 ft | 445 kts | 354° |
| 2026-04-23 18:55 | 30.53315 | -81.75789 | 36147 ft | 444 kts | 354° |
| 2026-04-23 18:55 | 30.59472 | -81.76371 | 36152 ft | 444 kts | 354° |
| 2026-04-23 18:56 | 30.64605 | -81.77093 | 36152 ft | 443 kts | 349° |
| 2026-04-23 18:56 | 30.71662 | -81.78513 | 36140 ft | 445 kts | 349° |
| 2026-04-23 18:57 | 30.77830 | -81.79745 | 36133 ft | 453 kts | 349° |
| 2026-04-23 18:57 | 30.84102 | -81.81001 | 36133 ft | 454 kts | 349° |
| 2026-04-23 18:58 | 30.90329 | -81.82248 | 36132 ft | 454 kts | 349° |
| 2026-04-23 18:58 | 30.96555 | -81.83493 | 36127 ft | 454 kts | 349° |
| 2026-04-23 18:59 | 31.02772 | -81.84750 | 36130 ft | 454 kts | 349° |
| 2026-04-23 18:59 | 31.08994 | -81.86001 | 36132 ft | 454 kts | 349° |
| 2026-04-23 19:00 | 31.15222 | -81.87254 | 36135 ft | 453 kts | 349° |
| 2026-04-23 19:00 | 31.21437 | -81.88513 | 36126 ft | 454 kts | 349° |
| 2026-04-23 19:01 | 31.27655 | -81.89769 | 36128 ft | 453 kts | 349° |
| 2026-04-23 19:01 | 31.33877 | -81.91027 | 36129 ft | 454 kts | 349° |
| 2026-04-23 19:02 | 31.39046 | -81.92081 | 36134 ft | 454 kts | 349° |
| 2026-04-23 19:02 | 31.46314 | -81.93552 | 36142 ft | 454 kts | 349° |
| 2026-04-23 19:03 | 31.52529 | -81.94814 | 36140 ft | 453 kts | 349° |
| 2026-04-23 19:03 | 31.58746 | -81.96079 | 36143 ft | 453 kts | 349° |
| 2026-04-23 19:04 | 31.64956 | -81.97346 | 36150 ft | 453 kts | 349° |
| 2026-04-23 19:04 | 31.71164 | -81.98616 | 36141 ft | 453 kts | 349° |
| 2026-04-23 19:05 | 31.77367 | -81.99887 | 36133 ft | 453 kts | 349° |
| 2026-04-23 19:05 | 31.83575 | -82.01166 | 36128 ft | 453 kts | 350° |
| 2026-04-23 19:06 | 31.89754 | -82.02770 | 36120 ft | 452 kts | 345° |
| 2026-04-23 19:06 | 31.95831 | -82.04712 | 36124 ft | 452 kts | 345° |
| 2026-04-23 19:07 | 32.01896 | -82.06652 | 36120 ft | 452 kts | 345° |
| 2026-04-23 19:07 | 32.07965 | -82.08594 | 36118 ft | 452 kts | 345° |
| 2026-04-23 19:08 | 32.13007 | -82.10209 | 36119 ft | 452 kts | 345° |
| 2026-04-23 19:08 | 32.19065 | -82.12171 | 36111 ft | 451 kts | 345° |
| 2026-04-23 19:09 | 32.25127 | -82.14130 | 36093 ft | 451 kts | 345° |
| 2026-04-23 19:09 | 32.31183 | -82.16083 | 36098 ft | 452 kts | 345° |
| 2026-04-23 19:10 | 32.37279 | -82.18053 | 36106 ft | 451 kts | 345° |
| 2026-04-23 19:10 | 32.43336 | -82.20006 | 36107 ft | 451 kts | 345° |
| 2026-04-23 19:11 | 32.49390 | -82.21962 | 36109 ft | 451 kts | 345° |
| 2026-04-23 19:11 | 32.55435 | -82.23921 | 36107 ft | 450 kts | 345° |
| 2026-04-23 19:12 | 32.61475 | -82.25877 | 36099 ft | 450 kts | 344° |
| 2026-04-23 19:12 | 32.67517 | -82.27845 | 36103 ft | 450 kts | 344° |
| 2026-04-23 19:13 | 32.73549 | -82.29813 | 36105 ft | 450 kts | 344° |
| 2026-04-23 19:13 | 32.79511 | -82.32030 | 36100 ft | 449 kts | 337° |
| 2026-04-23 19:14 | 32.85253 | -82.34927 | 36094 ft | 449 kts | 337° |
| 2026-04-23 19:14 | 32.91000 | -82.37829 | 36097 ft | 448 kts | 337° |
| 2026-04-23 19:15 | 32.96737 | -82.40720 | 36093 ft | 448 kts | 337° |
| 2026-04-23 19:15 | 33.02475 | -82.43607 | 36091 ft | 448 kts | 337° |
| 2026-04-23 19:16 | 33.08220 | -82.46501 | 36090 ft | 448 kts | 337° |
| 2026-04-23 19:16 | 33.13993 | -82.49416 | 36095 ft | 447 kts | 337° |
| 2026-04-23 19:17 | 33.22582 | -82.53774 | 36110 ft | 447 kts | 337° |
| 2026-04-23 19:17 | 33.28266 | -82.56662 | 36121 ft | 447 kts | 337° |
| 2026-04-23 19:18 | 33.34023 | -82.59587 | 36128 ft | 446 kts | 337° |
| 2026-04-23 19:18 | 33.39733 | -82.62498 | 36138 ft | 446 kts | 336° |
| 2026-04-23 19:19 | 33.48285 | -82.66871 | 36142 ft | 445 kts | 336° |
| 2026-04-23 19:20 | 33.56841 | -82.71238 | 36138 ft | 445 kts | 336° |
| 2026-04-23 19:20 | 33.62544 | -82.74156 | 36109 ft | 445 kts | 336° |
| 2026-04-23 19:21 | 33.71088 | -82.78528 | 36111 ft | 445 kts | 337° |
| 2026-04-23 19:22 | 33.76782 | -82.81445 | 36114 ft | 445 kts | 336° |
| 2026-04-23 19:22 | 33.85307 | -82.85855 | 36113 ft | 445 kts | 336° |
| 2026-04-23 19:23 | 33.90991 | -82.88786 | 36107 ft | 444 kts | 336° |
| 2026-04-23 19:24 | 33.99517 | -82.93194 | 36109 ft | 444 kts | 336° |
| 2026-04-23 19:24 | 34.08041 | -82.97600 | 36100 ft | 444 kts | 336° |
| 2026-04-23 19:25 | 34.19432 | -83.03517 | 36100 ft | 444 kts | 336° |
| 2026-04-23 19:26 | 34.27944 | -83.07943 | 36094 ft | 444 kts | 336° |
| 2026-04-23 19:27 | 34.42125 | -83.15357 | 36107 ft | 444 kts | 336° |
| 2026-04-23 19:28 | 34.53469 | -83.21293 | 36120 ft | 444 kts | 336° |
| 2026-04-23 19:29 | 34.61968 | -83.25751 | 35724 ft | 446 kts | 336° |
| 2026-04-23 19:30 | 34.67769 | -83.28804 | 33637 ft | 457 kts | 336° |
| 2026-04-23 19:30 | 34.70668 | -83.30361 | 32864 ft | 455 kts | 335° |
| 2026-04-23 19:30 | 34.76333 | -83.33816 | 30973 ft | 459 kts | 331° |
| 2026-04-23 19:31 | 34.79170 | -83.35687 | 29749 ft | 466 kts | 330° |
| 2026-04-23 19:31 | 34.82027 | -83.37592 | 28560 ft | 470 kts | 330° |
| 2026-04-23 19:31 | 34.84897 | -83.39486 | 27591 ft | 468 kts | 330° |
| 2026-04-23 19:31 | 34.87761 | -83.41341 | 26729 ft | 465 kts | 331° |
| 2026-04-23 19:32 | 34.90656 | -83.43189 | 25954 ft | 461 kts | 332° |
| 2026-04-23 19:32 | 34.93480 | -83.44978 | 25224 ft | 456 kts | 332° |
| 2026-04-23 19:32 | 34.96258 | -83.46734 | 24502 ft | 453 kts | 331° |
| 2026-04-23 19:32 | 34.99076 | -83.48521 | 23783 ft | 449 kts | 331° |
| 2026-04-23 19:33 | 35.01834 | -83.50279 | 23007 ft | 446 kts | 331° |
| 2026-04-23 19:33 | 35.04570 | -83.52028 | 22261 ft | 442 kts | 331° |
| 2026-04-23 19:33 | 35.09965 | -83.55480 | 20837 ft | 434 kts | 331° |
| 2026-04-23 19:34 | 35.12625 | -83.57186 | 20154 ft | 430 kts | 331° |
| 2026-04-23 19:34 | 35.15265 | -83.58882 | 19489 ft | 427 kts | 331° |
| 2026-04-23 19:34 | 35.20478 | -83.62238 | 18259 ft | 421 kts | 331° |
| 2026-04-23 19:35 | 35.23062 | -83.63904 | 17621 ft | 418 kts | 331° |
| 2026-04-23 19:35 | 35.25622 | -83.65554 | 17034 ft | 414 kts | 331° |
| 2026-04-23 19:35 | 35.28164 | -83.67189 | 16472 ft | 411 kts | 331° |
| 2026-04-23 19:35 | 35.30682 | -83.68803 | 15933 ft | 407 kts | 331° |
| 2026-04-23 19:36 | 35.33179 | -83.70403 | 15379 ft | 403 kts | 331° |
| 2026-04-23 19:36 | 35.35656 | -83.71993 | 14808 ft | 400 kts | 331° |
| 2026-04-23 19:36 | 35.38112 | -83.73573 | 14264 ft | 397 kts | 331° |
| 2026-04-23 19:36 | 35.40541 | -83.75142 | 13676 ft | 393 kts | 331° |
| 2026-04-23 19:37 | 35.42948 | -83.76703 | 13012 ft | 390 kts | 331° |
| 2026-04-23 19:37 | 35.44916 | -83.77982 | 12496 ft | 387 kts | 331° |
| 2026-04-23 19:37 | 35.47363 | -83.79194 | 12279 ft | 373 kts | 346° |
| 2026-04-23 19:37 | 35.49877 | -83.79620 | 12151 ft | 358 kts | 357° |
| 2026-04-23 19:38 | 35.52296 | -83.79590 | 12013 ft | 335 kts | 2° |
| 2026-04-23 19:38 | 35.54536 | -83.79413 | 11788 ft | 316 kts | 3° |
| 2026-04-23 19:38 | 35.56684 | -83.79258 | 11274 ft | 309 kts | 2° |
| 2026-04-23 19:38 | 35.58807 | -83.79176 | 10676 ft | 306 kts | 360° |
| 2026-04-23 19:39 | 35.60929 | -83.79170 | 10074 ft | 303 kts | 358° |
| 2026-04-23 19:39 | 35.63056 | -83.79223 | 9457 ft | 300 kts | 358° |
| 2026-04-23 19:39 | 35.65133 | -83.79304 | 8796 ft | 297 kts | 357° |
| 2026-04-23 19:39 | 35.67192 | -83.79396 | 8179 ft | 294 kts | 356° |
| 2026-04-23 19:40 | 35.68545 | -83.79457 | 7789 ft | 293 kts | 357° |
| 2026-04-23 19:40 | 35.70569 | -83.79546 | 7206 ft | 291 kts | 356° |
| 2026-04-23 19:40 | 35.72577 | -83.79632 | 6665 ft | 287 kts | 356° |
| 2026-04-23 19:40 | 35.74565 | -83.79714 | 6152 ft | 283 kts | 357° |
| 2026-04-23 19:41 | 35.76499 | -83.79791 | 6016 ft | 279 kts | 357° |
| 2026-04-23 19:41 | 35.78392 | -83.79869 | 6013 ft | 260 kts | 357° |
| 2026-04-23 19:41 | 35.80114 | -83.79937 | 5946 ft | 240 kts | 356° |
| 2026-04-23 19:41 | 35.81801 | -83.80002 | 5326 ft | 245 kts | 356° |
| 2026-04-23 19:42 | 35.83527 | -83.80068 | 4684 ft | 251 kts | 356° |
| 2026-04-23 19:42 | 35.85276 | -83.80138 | 4139 ft | 251 kts | 357° |
| 2026-04-23 19:42 | 35.86993 | -83.80209 | 3783 ft | 244 kts | 356° |
| 2026-04-23 19:42 | 35.88671 | -83.80281 | 3418 ft | 239 kts | 357° |
| 2026-04-23 19:43 | 35.90314 | -83.80351 | 3081 ft | 233 kts | 356° |
| 2026-04-23 19:43 | 35.91872 | -83.80556 | 3015 ft | 210 kts | 337° |
| 2026-04-23 19:43 | 35.92971 | -83.81481 | 3051 ft | 184 kts | 306° |
| 2026-04-23 19:43 | 35.93476 | -83.82810 | 2999 ft | 156 kts | 277° |
| 2026-04-23 19:44 | 35.93444 | -83.84041 | 3038 ft | 146 kts | 255° |
| 2026-04-23 19:44 | 35.92998 | -83.85171 | 3019 ft | 146 kts | 231° |
| 2026-04-23 19:44 | 35.92255 | -83.86091 | 3010 ft | 148 kts | 225° |
| 2026-04-23 19:44 | 35.91525 | -83.86979 | 3006 ft | 146 kts | 225° |
| 2026-04-23 19:45 | 35.90801 | -83.87864 | 2989 ft | 147 kts | 225° |
| 2026-04-23 19:45 | 35.90071 | -83.88759 | 3016 ft | 151 kts | 225° |
| 2026-04-23 19:45 | 35.89323 | -83.89676 | 3015 ft | 152 kts | 226° |
| 2026-04-23 19:45 | 35.88578 | -83.90588 | 2835 ft | 150 kts | 225° |
| 2026-04-23 19:46 | 35.87838 | -83.91495 | 2586 ft | 150 kts | 226° |
| 2026-04-23 19:46 | 35.87100 | -83.92398 | 2408 ft | 150 kts | 226° |
| 2026-04-23 19:46 | 35.86357 | -83.93308 | 2191 ft | 150 kts | 225° |
| 2026-04-23 19:46 | 35.85620 | -83.94209 | 2007 ft | 148 kts | 225° |
| 2026-04-23 19:47 | 35.84888 | -83.95103 | 1757 ft | 145 kts | 227° |
| 2026-04-23 19:47 | 35.84191 | -83.95970 | 1551 ft | 138 kts | 229° |
| 2026-04-23 19:47 | 35.83500 | -83.96814 | 1371 ft | 143 kts | 225° |
| 2026-04-23 19:47 | 35.82774 | -83.97679 | 1190 ft | 146 kts | 225° |
| 2026-04-23 19:48 | 35.82057 | -83.98561 | 998 ft | 143 kts | 226° |
| 2026-04-23 19:48 | 35.81415 | -83.99355 | 968 ft | 115 kts | 225° |
| 2026-04-23 19:48 | 35.81039 | -83.99785 | 963 ft | 36 kts | 207° |
| 2026-04-23 19:48 | 35.80859 | -83.99808 | 965 ft | 22 kts | 147° |
| 2026-04-23 19:49 | 35.80770 | -83.99672 | 966 ft | 17 kts | 125° |
| 2026-04-23 19:49 | 35.80715 | -83.99585 | 960 ft | 15 kts | 128° |
| 2026-04-23 19:49 | 35.80652 | -83.99481 | 961 ft | 11 kts | 114° |
| 2026-04-23 19:49 | 35.80680 | -83.99412 | 966 ft | 14 kts | 40° |
| 2026-04-23 19:50 | 35.80783 | -83.99287 | 966 ft | 27 kts | 45° |
| 2026-04-23 19:50 | 35.80929 | -83.99109 | 965 ft | 17 kts | 44° |
| 2026-04-23 19:50 | 35.80917 | -83.99029 | 967 ft | 11 kts | 170° |
| 2026-04-23 19:50 | 35.80841 | -83.98995 | 967 ft | 13 kts | 139° |
| 2026-04-23 19:51 | 35.80781 | -83.98958 | 965 ft | 8 kts | 200° |
| 2026-04-23 19:51 | 35.80760 | -83.98995 | 964 ft | 2 kts | 242° |
| 2026-04-23 19:51 | 35.80756 | -83.99003 | 965 ft | 0 kts | 241° |